Time;durP1;ratioP1;P1;durP2;ratioP2;P2;SDS_P1;SDS_P2;PMS_P1;PMS_P2;Temp;Humidity;BMP_temperature;BMP_pressure;BME280_temperature;BME280_humidity;BME280_pressure;Samples;Min_cycle;Max_cycle;Signal;HPM_P1;HPM_P2
2022/06/30 00:02:25;;;;;;;23.38;21.15;;;;;;;21.89;80.54;98702.92;2210815;81;21305;-80
2022/06/30 00:05:25;;;;;;;22.35;20.40;;;;;;;21.86;80.64;98697.72;2209790;81;21031;-78
2022/06/30 00:08:35;;;;;;;21.85;20.05;;;;;;;21.81;80.68;98694.36;2210872;81;21035;-79
2022/06/30 00:11:36;;;;;;;23.35;21.02;;;;;;;21.76;80.87;98689.67;2189098;81;20948;-79
2022/06/30 00:14:37;;;;;;;21.85;19.95;;;;;;;21.69;81.07;98688.16;2210664;81;21327;-78
2022/06/30 00:17:37;;;;;;;22.77;20.72;;;;;;;21.65;81.27;98682.52;2210432;81;21000;-78
2022/06/30 00:20:38;;;;;;;22.42;20.57;;;;;;;21.61;81.62;98675.98;2210827;81;20940;-78
2022/06/30 00:23:39;;;;;;;22.70;20.25;;;;;;;21.59;81.62;98671.19;2205406;80;20995;-79
2022/06/30 00:26:39;;;;;;;21.70;19.95;;;;;;;21.61;81.94;98666.69;2197667;81;20951;-79
2022/06/30 00:29:40;;;;;;;22.35;20.35;;;;;;;21.63;81.79;98664.84;2197831;80;20948;-78
2022/06/30 00:32:40;;;;;;;22.25;20.40;;;;;;;21.59;81.87;98651.27;2197807;81;20921;-78
2022/06/30 00:35:40;;;;;;;24.12;20.27;;;;;;;21.53;81.95;98652.81;2202228;81;21071;-78
2022/06/30 00:38:41;;;;;;;22.10;20.20;;;;;;;21.51;82.13;98649.34;2197713;81;20976;-78
2022/06/30 00:41:41;;;;;;;23.00;20.50;;;;;;;21.48;82.29;98654.77;2197737;81;20984;-80
2022/06/30 00:44:42;;;;;;;25.08;20.48;;;;;;;21.48;82.49;98653.44;2197844;81;20953;-78
2022/06/30 00:47:42;;;;;;;23.83;21.33;;;;;;;21.48;82.39;98646.80;2198002;81;21428;-80
2022/06/30 00:50:43;;;;;;;21.65;19.70;;;;;;;21.50;82.51;98650.27;2198101;81;20962;-80
2022/06/30 00:53:43;;;;;;;22.37;20.55;;;;;;;21.54;82.57;98649.70;2197175;80;20976;-79
2022/06/30 00:56:44;;;;;;;21.15;19.37;;;;;;;21.53;82.29;98640.86;2196870;81;20929;-80
2022/06/30 00:59:44;;;;;;;27.95;21.55;;;;;;;21.52;82.50;98635.14;2196981;81;20961;-80
2022/06/30 01:02:44;;;;;;;21.52;19.70;;;;;;;21.52;82.63;98633.81;2197264;81;20928;-80
2022/06/30 01:05:45;;;;;;;22.02;19.65;;;;;;;21.55;82.64;98627.53;2197020;80;21432;-80
2022/06/30 01:08:45;;;;;;;21.23;19.10;;;;;;;21.56;82.60;98635.44;2197248;81;20987;-80
2022/06/30 01:15:06;;;;;;;20.45;18.60;;;;;;;21.54;82.47;98632.44;2198114;80;21341;-79
2022/06/30 01:18:05;;;;;;;21.12;19.17;;;;;;;21.52;82.72;98629.83;2197964;81;20980;-80
2022/06/30 01:21:05;;;;;;;21.65;19.73;;;;;;;21.51;82.70;98628.09;2197817;81;20953;-79
2022/06/30 01:24:05;;;;;;;91.25;25.40;;;;;;;21.52;82.67;98627.64;2203706;81;20952;-78
2022/06/30 01:27:13;;;;;;;27.02;20.35;;;;;;;21.54;82.73;98625.80;2210491;81;21403;-80
2022/06/30 01:30:08;;;;;;;47.80;21.10;;;;;;;21.54;82.92;98625.33;2189356;81;20996;-80
2022/06/30 01:33:09;;;;;;;25.95;20.02;;;;;;;21.56;82.84;98623.95;2210817;81;21289;-80
2022/06/30 01:36:09;;;;;;;32.78;20.30;;;;;;;21.57;82.68;98621.70;2210524;81;21047;-79
2022/06/30 01:39:09;;;;;;;23.20;20.17;;;;;;;21.60;82.74;98625.58;2210376;81;21008;-79
2022/06/30 01:42:10;;;;;;;22.85;20.75;;;;;;;21.60;82.74;98619.80;2210629;81;20949;-80
2022/06/30 01:45:10;;;;;;;22.55;20.10;;;;;;;21.58;82.85;98630.08;2210065;81;20983;-79
2022/06/30 01:48:11;;;;;;;22.17;19.95;;;;;;;21.53;83.23;98628.91;2210426;81;21392;-80
2022/06/30 01:51:11;;;;;;;29.55;21.62;;;;;;;21.49;83.37;98633.92;2210352;81;20925;-77
2022/06/30 01:54:12;;;;;;;22.07;19.98;;;;;;;21.42;83.62;98629.75;2209802;81;21007;-79
2022/06/30 01:57:12;;;;;;;21.87;19.95;;;;;;;21.33;83.73;98629.20;2210404;81;20956;-80
2022/06/30 02:00:12;;;;;;;24.65;20.25;;;;;;;21.25;84.16;98625.49;2210625;81;21297;-78
2022/06/30 02:03:13;;;;;;;22.58;20.68;;;;;;;21.17;84.24;98625.72;2210314;81;20944;-78
2022/06/30 02:06:13;;;;;;;24.15;21.73;;;;;;;21.11;84.56;98619.77;2209906;81;21051;-82
2022/06/30 02:09:14;;;;;;;24.20;21.87;;;;;;;21.06;84.91;98619.92;2210048;81;20937;-79
2022/06/30 02:15:33;;;;;;;222.75;34.30;;;;;;;20.95;85.13;98614.11;2209556;81;20979;-80
2022/06/30 02:18:33;;;;;;;25.82;22.75;;;;;;;20.89;85.48;98613.85;2210117;81;20980;-79
2022/06/30 02:21:33;;;;;;;24.20;22.05;;;;;;;20.87;85.55;98616.15;2209763;81;21365;-79
2022/06/30 02:24:34;;;;;;;23.73;21.52;;;;;;;20.81;85.74;98613.70;2202606;80;20973;-79
2022/06/30 02:27:34;;;;;;;23.62;21.45;;;;;;;20.75;85.46;98607.23;2196872;81;20968;-78
2022/06/30 02:30:35;;;;;;;135.32;30.55;;;;;;;20.66;85.74;98611.92;2197102;81;20972;-78
2022/06/30 02:33:36;;;;;;;25.80;23.12;;;;;;;20.63;85.92;98608.50;2197105;81;20913;-80
2022/06/30 02:36:36;;;;;;;25.15;22.45;;;;;;;20.61;85.99;98612.98;2197179;81;21031;-80
2022/06/30 02:39:36;;;;;;;24.63;22.48;;;;;;;20.57;86.11;98604.27;2197417;81;21348;-80
2022/06/30 02:42:37;;;;;;;23.95;21.82;;;;;;;20.54;86.02;98601.71;2197665;81;20969;-79
2022/06/30 02:45:37;;;;;;;25.72;23.02;;;;;;;20.51;86.00;98610.22;2197988;81;20980;-81
2022/06/30 02:48:37;;;;;;;23.52;21.33;;;;;;;20.46;86.31;98610.83;2198822;81;21332;-80
2022/06/30 02:51:38;;;;;;;23.18;21.00;;;;;;;20.39;86.43;98606.18;2198256;81;20960;-80
2022/06/30 02:54:38;;;;;;;27.87;22.30;;;;;;;20.43;86.66;98613.58;2198026;81;20945;-81
2022/06/30 02:57:38;;;;;;;23.27;21.37;;;;;;;20.41;86.67;98605.67;2198051;81;21329;-79
2022/06/30 03:00:39;;;;;;;24.20;21.97;;;;;;;20.39;86.47;98603.53;2198273;81;20971;-80
2022/06/30 03:03:39;;;;;;;23.87;21.65;;;;;;;20.42;86.77;98609.19;2198169;81;20985;-79
2022/06/30 03:06:40;;;;;;;25.80;22.05;;;;;;;20.44;86.57;98608.23;2198081;81;21008;-79
2022/06/30 03:09:40;;;;;;;24.65;22.25;;;;;;;20.45;86.63;98608.63;2198183;81;21384;-81
2022/06/30 03:12:40;;;;;;;98.03;28.42;;;;;;;20.52;86.80;98607.98;2197099;81;20933;-79
2022/06/30 03:15:41;;;;;;;27.17;23.32;;;;;;;20.58;87.22;98594.53;2197648;81;20953;-79
2022/06/30 03:18:42;;;;;;;25.05;22.60;;;;;;;20.63;86.88;98591.27;2198065;80;21350;-79
2022/06/30 03:21:42;;;;;;;26.75;24.35;;;;;;;20.66;86.97;98591.16;2197342;81;20957;-78
2022/06/30 03:24:43;;;;;;;25.45;23.00;;;;;;;20.74;87.10;98593.11;2200301;80;20944;-79
2022/06/30 03:27:43;;;;;;;25.45;23.18;;;;;;;20.79;87.03;98592.95;2203077;81;20992;-79
2022/06/30 03:30:47;;;;;;;25.50;22.95;;;;;;;20.81;87.04;98584.06;2191477;81;21333;-78
2022/06/30 03:33:44;;;;;;;26.05;23.40;;;;;;;20.90;87.22;98590.84;2191263;81;20945;-78
2022/06/30 03:36:44;;;;;;;26.77;23.22;;;;;;;20.95;87.14;98587.58;2190598;81;21032;-79
2022/06/30 03:39:45;;;;;;;30.43;22.55;;;;;;;21.03;86.81;98588.64;2190775;81;20925;-79
2022/06/30 03:42:47;;;;;;;34.18;23.25;;;;;;;21.12;87.12;98586.53;2168876;81;21005;-78
2022/06/30 03:45:48;;;;;;;25.95;23.05;;;;;;;21.23;86.83;98592.37;2190497;81;21024;-78
2022/06/30 03:48:48;;;;;;;37.10;24.47;;;;;;;21.36;86.67;98588.81;2191673;81;21003;-78
2022/06/30 03:51:48;;;;;;;26.45;22.95;;;;;;;21.44;86.27;98588.54;2191158;81;20933;-78
2022/06/30 03:54:49;;;;;;;29.30;22.58;;;;;;;21.55;86.03;98584.58;2190632;81;20968;-80
2022/06/30 03:57:49;;;;;;;27.05;23.18;;;;;;;21.65;85.73;98594.86;2190379;81;21348;-78
2022/06/30 04:00:49;;;;;;;170.95;29.35;;;;;;;21.77;85.45;98597.09;2190331;81;20969;-79
2022/06/30 04:03:50;;;;;;;30.40;22.22;;;;;;;21.91;85.26;98597.45;2190052;81;20980;-80
2022/06/30 04:06:50;;;;;;;30.37;23.12;;;;;;;22.04;84.77;98591.23;2189367;81;21723;-79
2022/06/30 04:09:51;;;;;;;23.20;20.85;;;;;;;22.18;84.49;98592.43;2190638;81;21250;-78
2022/06/30 04:12:51;;;;;;;25.72;23.10;;;;;;;22.30;84.08;98587.56;2190721;81;20933;-78
2022/06/30 04:15:52;;;;;;;24.75;22.20;;;;;;;22.53;84.49;98583.52;2190874;81;20996;-77
2022/06/30 04:18:52;;;;;;;26.48;22.85;;;;;;;23.05;84.00;98590.27;2190283;81;21624;-80
2022/06/30 04:21:52;;;;;;;24.57;22.05;;;;;;;23.50;82.44;98591.42;2189475;81;20941;-77
2022/06/30 04:24:53;;;;;;;23.62;21.35;;;;;;;23.89;81.01;98589.72;2196836;81;20980;-78
2022/06/30 04:27:54;;;;;;;23.57;21.57;;;;;;;24.20;79.77;98591.82;2207908;81;20968;-80
2022/06/30 04:34:12;;;;;;;37.28;20.92;;;;;;;24.58;77.47;98597.58;2208426;81;20947;-78
2022/06/30 04:37:13;;;;;;;25.95;20.10;;;;;;;24.71;76.52;98596.04;2208809;80;21363;-77
2022/06/30 04:43:32;;;;;;;26.20;18.67;;;;;;;25.17;75.58;98593.79;2208593;81;20971;-81
2022/06/30 04:46:32;;;;;;;24.85;17.92;;;;;;;25.31;73.90;98603.30;2208492;81;21078;-77
2022/06/30 04:49:33;;;;;;;23.45;19.90;;;;;;;25.40;73.34;98620.66;2208593;81;20928;-76
2022/06/30 04:52:33;;;;;;;25.88;22.98;;;;;;;25.23;71.57;98652.23;2208048;81;21304;-79
2022/06/30 04:55:33;;;;;;;26.07;23.62;;;;;;;24.86;72.62;98664.30;2208051;81;20976;-79
2022/06/30 04:58:34;;;;;;;26.37;23.98;;;;;;;24.43;73.47;98665.02;2208341;81;20971;-80
2022/06/30 05:01:34;;;;;;;28.55;25.50;;;;;;;24.20;74.71;98678.03;2208035;81;20944;-78
2022/06/30 05:04:35;;;;;;;29.70;25.00;;;;;;;24.15;74.70;98670.23;2207851;81;21011;-78
2022/06/30 05:07:35;;;;;;;28.12;25.37;;;;;;;24.25;75.59;98685.81;2208365;81;20987;-79
2022/06/30 05:10:36;;;;;;;27.42;24.82;;;;;;;24.53;74.53;98677.45;2209401;81;20940;-81
2022/06/30 05:13:36;;;;;;;32.20;25.70;;;;;;;24.56;73.65;98674.17;2210078;81;20944;-81
2022/06/30 05:16:36;;;;;;;26.00;23.30;;;;;;;24.56;72.35;98715.53;2210267;81;20988;-79
2022/06/30 05:19:37;;;;;;;31.68;23.87;;;;;;;24.61;71.82;98702.84;2209197;80;20904;-76
2022/06/30 05:22:37;;;;;;;27.37;24.52;;;;;;;24.70;71.03;98671.70;2209022;81;20968;-81
2022/06/30 05:28:57;;;;;;;24.98;22.77;;;;;;;24.76;70.53;98701.24;2209527;81;20999;-82
2022/06/30 05:31:57;;;;;;;24.37;21.68;;;;;;;24.78;70.76;98647.31;2209530;81;20952;-79
2022/06/30 05:35:00;;;;;;;23.67;21.57;;;;;;;25.01;71.36;98695.14;2209276;81;20932;-82
2022/06/30 05:38:01;;;;;;;24.67;22.10;;;;;;;25.05;70.95;98687.38;2209194;81;21003;-78
2022/06/30 05:41:01;;;;;;;24.55;22.27;;;;;;;25.11;70.43;98670.66;2210459;81;21101;-79
2022/06/30 05:44:01;;;;;;;22.22;20.05;;;;;;;25.06;70.92;98686.91;2210377;81;20944;-79
2022/06/30 05:47:02;;;;;;;24.02;21.40;;;;;;;25.08;71.18;98670.34;2209114;81;20952;-79
2022/06/30 05:50:02;;;;;;;22.22;19.92;;;;;;;25.31;70.57;98665.21;2209357;81;20944;-81
2022/06/30 05:53:03;;;;;;;23.47;21.37;;;;;;;25.46;69.35;98670.24;2209801;80;21412;-79
2022/06/30 05:56:03;;;;;;;24.15;21.82;;;;;;;25.47;69.49;98681.33;2209843;81;20999;-80
2022/06/30 05:59:03;;;;;;;23.07;20.70;;;;;;;25.49;69.44;98682.11;2210068;81;21403;-80
2022/06/30 06:02:04;;;;;;;22.73;20.48;;;;;;;25.53;69.30;98684.55;2210336;81;20905;-80
2022/06/30 06:05:04;;;;;;;20.88;19.07;;;;;;;25.59;68.68;98665.52;2210637;80;20976;-81
2022/06/30 06:08:05;;;;;;;23.47;21.30;;;;;;;25.80;69.06;98664.91;2209847;81;21028;-79
2022/06/30 06:11:05;;;;;;;23.45;21.40;;;;;;;26.02;67.55;98676.22;2209097;81;21343;-80
2022/06/30 06:14:06;;;;;;;23.35;21.15;;;;;;;26.04;66.76;98689.52;2210228;81;20980;-81
2022/06/30 06:17:06;;;;;;;22.55;20.12;;;;;;;26.03;66.82;98684.63;2210096;81;21692;-81
2022/06/30 06:20:06;;;;;;;21.77;19.75;;;;;;;26.00;66.35;98673.20;2208876;81;20952;-79
2022/06/30 06:23:07;;;;;;;22.95;20.65;;;;;;;26.18;66.52;98658.87;2209010;81;20933;-81
2022/06/30 06:26:07;;;;;;;27.22;21.07;;;;;;;26.44;66.34;98663.30;2209776;81;20984;-81
2022/06/30 06:29:08;;;;;;;21.62;19.67;;;;;;;26.64;65.77;98665.25;2209044;81;20960;-80
2022/06/30 06:32:08;;;;;;;21.07;19.00;;;;;;;26.85;65.26;98673.02;2208745;81;20964;-78
2022/06/30 06:35:09;;;;;;;41.63;21.65;;;;;;;26.98;64.46;98667.41;2208905;81;20972;-79
2022/06/30 06:38:09;;;;;;;20.15;18.30;;;;;;;27.15;64.80;98667.77;2209716;81;21015;-83
2022/06/30 06:41:09;;;;;;;22.55;19.25;;;;;;;27.33;64.31;98668.03;2208965;81;20967;-80
2022/06/30 06:44:10;;;;;;;18.37;16.77;;;;;;;27.34;63.86;98661.72;2208783;81;20980;-80
2022/06/30 06:47:10;;;;;;;19.52;17.60;;;;;;;27.47;63.99;98664.05;2208435;81;20984;-82
2022/06/30 06:50:10;;;;;;;17.80;16.17;;;;;;;27.61;63.68;98667.28;2208661;81;20901;-80
2022/06/30 06:53:11;;;;;;;17.45;16.00;;;;;;;27.67;62.89;98658.86;2208403;80;21316;-80
2022/06/30 06:56:11;;;;;;;18.67;16.75;;;;;;;27.86;62.52;98654.13;2208779;81;20959;-81
2022/06/30 06:59:12;;;;;;;18.73;17.02;;;;;;;28.15;62.28;98654.15;2208155;81;20933;-81
2022/06/30 07:02:12;;;;;;;19.45;17.40;;;;;;;28.40;61.51;98677.66;2208420;81;20945;-81
2022/06/30 07:05:12;;;;;;;19.42;16.62;;;;;;;28.54;61.29;98685.21;2208383;81;21663;-81
2022/06/30 07:08:13;;;;;;;21.25;19.15;;;;;;;28.88;60.51;98675.52;2208882;81;20992;-82
2022/06/30 07:11:13;;;;;;;30.27;18.55;;;;;;;29.07;59.70;98678.72;2209294;81;20983;-81
2022/06/30 07:14:14;;;;;;;20.80;18.60;;;;;;;29.00;58.89;98676.92;2209422;81;20936;-81
2022/06/30 07:17:14;;;;;;;19.00;17.10;;;;;;;28.98;58.77;98672.61;2208297;81;21488;-81
2022/06/30 07:20:14;;;;;;;18.30;16.45;;;;;;;28.99;59.04;98687.77;2209508;81;21604;-80
2022/06/30 07:23:15;;;;;;;32.13;18.98;;;;;;;29.31;58.08;98668.16;2209056;81;20940;-81
2022/06/30 07:26:15;;;;;;;20.48;17.67;;;;;;;29.41;57.57;98678.67;2206162;81;20968;-83
2022/06/30 07:29:16;;;;;;;19.05;17.00;;;;;;;29.42;57.35;98688.45;2208240;81;20948;-83
2022/06/30 07:32:23;;;;;;;17.35;15.93;;;;;;;29.43;57.05;98680.80;2209946;81;20964;-84
2022/06/30 07:35:20;;;;;;;17.98;16.27;;;;;;;29.60;57.17;98681.89;2187596;81;21335;-82
2022/06/30 07:38:21;;;;;;;18.73;16.87;;;;;;;29.91;56.92;98673.91;2208512;81;21007;-83
2022/06/30 07:41:22;;;;;;;18.48;16.97;;;;;;;30.23;56.19;98670.81;2203902;81;20956;-82
2022/06/30 07:44:22;;;;;;;19.07;17.20;;;;;;;30.25;55.23;98675.61;2208447;81;20935;-81
2022/06/30 07:47:22;;;;;;;18.87;16.52;;;;;;;30.32;55.65;98676.89;2208794;81;20987;-80
2022/06/30 07:50:23;;;;;;;18.52;16.65;;;;;;;30.50;54.68;98673.39;2209675;81;20975;-79
2022/06/30 07:53:41;;;;;;;18.05;16.00;;;;;;;30.82;53.94;98676.47;2208764;81;21643;-80
2022/06/30 07:56:54;;;;;;;20.45;15.65;;;;;;;31.12;53.28;98670.64;2208686;81;20988;-79
2022/06/30 08:00:11;;;;;;;18.30;16.62;;;;;;;31.33;52.90;98665.90;2209871;81;20963;-82
2022/06/30 08:03:11;;;;;;;18.82;16.85;;;;;;;31.49;52.30;98671.47;2187509;81;20956;-81
2022/06/30 08:06:11;;;;;;;19.73;16.35;;;;;;;31.53;51.39;98671.12;2209461;81;21363;-81
2022/06/30 08:09:15;;;;;;;19.12;17.62;;;;;;;31.52;52.08;98676.14;2208627;80;20976;-83
2022/06/30 08:12:15;;;;;;;20.25;16.87;;;;;;;31.56;51.65;98670.89;2209281;81;21368;-82
2022/06/30 08:15:16;;;;;;;18.00;16.17;;;;;;;31.68;52.21;98667.73;2209610;81;20983;-79
2022/06/30 08:18:16;;;;;;;18.12;16.50;;;;;;;31.83;50.94;98667.06;2208692;81;20928;-81
2022/06/30 08:21:16;;;;;;;17.73;16.30;;;;;;;31.75;50.79;98664.96;2209180;81;20896;-80
2022/06/30 08:24:17;;;;;;;74.42;24.27;;;;;;;31.82;50.94;98661.30;2209457;81;21597;-81
2022/06/30 08:27:17;;;;;;;24.67;19.23;;;;;;;32.00;51.35;98663.91;2207200;80;21036;-79
2022/06/30 08:30:18;;;;;;;21.85;18.73;;;;;;;32.02;50.33;98659.24;2206068;81;20940;-80
2022/06/30 08:33:18;;;;;;;18.37;16.85;;;;;;;32.18;50.35;98658.43;2206409;81;21566;-78
2022/06/30 08:36:19;;;;;;;19.15;17.35;;;;;;;32.32;49.81;98661.91;2209577;80;20992;-81
2022/06/30 08:42:38;;;;;;;18.85;16.50;;;;;;;32.28;49.30;98674.80;2209637;81;20976;-82
2022/06/30 08:45:38;;;;;;;21.60;16.20;;;;;;;32.36;49.84;98666.94;2209030;81;21035;-81
2022/06/30 08:48:39;;;;;;;17.10;15.40;;;;;;;32.51;49.81;98664.84;2209455;81;21000;-81
2022/06/30 08:51:39;;;;;;;17.32;15.85;;;;;;;32.77;49.99;98664.97;2210047;81;21003;-82
2022/06/30 08:54:39;;;;;;;17.00;15.53;;;;;;;33.07;49.53;98664.30;2210091;81;20972;-81
2022/06/30 08:57:42;;;;;;;19.30;16.37;;;;;;;33.19;48.53;98663.28;2210494;81;20963;-81
2022/06/30 09:00:43;;;;;;;17.60;16.20;;;;;;;33.18;48.10;98671.03;2209756;81;20971;-81
2022/06/30 09:03:43;;;;;;;18.02;16.00;;;;;;;33.03;48.10;98671.45;2208523;81;21600;-80
2022/06/30 09:06:44;;;;;;;17.65;16.05;;;;;;;33.15;47.62;98667.23;2208104;81;20967;-79
2022/06/30 09:09:45;;;;;;;17.17;15.65;;;;;;;33.22;47.44;98670.28;2208053;81;21100;-79
2022/06/30 09:12:45;;;;;;;18.05;15.58;;;;;;;33.32;47.65;98669.91;2209059;81;21011;-81
2022/06/30 09:15:47;;;;;;;16.82;15.23;;;;;;;33.54;47.71;98667.09;2209309;81;20963;-79
2022/06/30 09:18:46;;;;;;;18.90;17.07;;;;;;;33.53;47.17;98670.80;2209131;81;20960;-83
2022/06/30 09:21:46;;;;;;;16.73;15.23;;;;;;;33.49;46.52;98665.28;2209851;81;21344;-80
2022/06/30 09:24:47;;;;;;;21.57;15.38;;;;;;;33.40;46.69;98663.35;2209366;81;21016;-81
2022/06/30 09:27:47;;;;;;;16.73;15.43;;;;;;;33.40;46.68;98659.30;2200321;80;20984;-81
2022/06/30 09:30:48;;;;;;;15.18;13.98;;;;;;;33.50;46.17;98662.94;2196470;81;20953;-82
2022/06/30 09:33:48;;;;;;;15.68;14.38;;;;;;;33.54;46.13;98663.04;2196485;81;21284;-82
2022/06/30 09:36:48;;;;;;;15.65;14.35;;;;;;;33.77;46.06;98661.56;2196721;81;20952;-81
2022/06/30 09:39:49;;;;;;;14.43;13.10;;;;;;;34.05;45.33;98661.44;2197464;81;21057;-81
2022/06/30 09:42:49;;;;;;;13.55;12.50;;;;;;;34.17;44.74;98651.74;2196289;80;20987;-83
2022/06/30 09:45:50;;;;;;;14.53;13.03;;;;;;;34.36;44.40;98647.44;2195607;81;20979;-81
2022/06/30 09:48:50;;;;;;;16.75;14.68;;;;;;;34.64;44.47;98652.10;2196638;81;20964;-81
2022/06/30 09:51:51;;;;;;;16.45;14.60;;;;;;;34.87;44.15;98655.50;2196580;81;20964;-82
2022/06/30 09:54:51;;;;;;;22.35;14.87;;;;;;;35.04;43.42;98660.25;2195770;81;20933;-82
2022/06/30 09:57:51;;;;;;;14.00;12.75;;;;;;;35.15;43.27;98652.48;2197185;81;20932;-84
2022/06/30 10:00:52;;;;;;;15.28;13.80;;;;;;;35.34;42.53;98654.38;2196978;81;20909;-84
2022/06/30 10:03:52;;;;;;;15.05;13.88;;;;;;;35.25;42.40;98641.13;2196768;80;21004;-81
2022/06/30 10:06:53;;;;;;;14.15;12.70;;;;;;;35.27;42.30;98637.77;2196830;80;20968;-81
2022/06/30 10:09:53;;;;;;;15.00;12.93;;;;;;;35.40;43.07;98638.88;2195669;81;21031;-81
2022/06/30 10:12:54;;;;;;;14.45;13.13;;;;;;;35.70;42.29;98637.37;2196409;81;21035;-79
2022/06/30 10:15:54;;;;;;;15.88;12.68;;;;;;;36.00;41.89;98633.62;2195927;81;20972;-80
2022/06/30 10:18:54;;;;;;;13.20;11.85;;;;;;;36.18;41.48;98634.21;2196735;80;21420;-80
2022/06/30 10:21:55;;;;;;;14.58;11.97;;;;;;;36.28;40.88;98636.39;2196349;81;20944;-82
2022/06/30 10:24:56;;;;;;;135.28;19.42;;;;;;;36.36;40.09;98631.95;2196393;81;20956;-80
2022/06/30 10:27:56;;;;;;;13.28;12.07;;;;;;;36.48;39.57;98635.36;2196592;81;21360;-81
2022/06/30 10:30:57;;;;;;;83.82;18.70;;;;;;;36.52;39.21;98633.20;2196732;81;20989;-79
2022/06/30 10:33:58;;;;;;;15.75;12.37;;;;;;;36.53;38.60;98635.77;2196241;80;20969;-80
2022/06/30 10:36:58;;;;;;;12.28;11.08;;;;;;;36.37;38.32;98637.73;2197405;81;20953;-81
2022/06/30 10:39:59;;;;;;;13.65;11.00;;;;;;;36.09;39.04;98637.82;2196527;80;20957;-82
2022/06/30 10:43:01;;;;;;;12.15;10.28;;;;;;;36.08;38.57;98631.53;2197341;80;20949;-80
2022/06/30 10:46:02;;;;;;;11.05;9.93;;;;;;;36.24;39.03;98630.90;2197308;81;20960;-80
2022/06/30 10:49:03;;;;;;;;;;;;;;;36.52;38.84;98627.26;2199307;81;20969;-80
2022/06/30 10:52:04;;;;;;;570.35;63.92;;;;;;;36.58;38.54;98632.59;2195501;81;20116;-82
2022/06/30 10:55:04;;;;;;;37.35;14.10;;;;;;;36.63;37.74;98630.28;2195992;81;21353;-80
2022/06/30 10:58:06;;;;;;;43.23;13.32;;;;;;;36.85;38.10;98633.97;2197521;81;20957;-81
2022/06/30 11:01:05;;;;;;;10.40;9.43;;;;;;;36.80;37.47;98631.35;2196854;80;20964;-80
2022/06/30 11:04:06;;;;;;;10.35;9.33;;;;;;;36.61;36.58;98633.14;2197037;80;21020;-82
2022/06/30 11:07:07;;;;;;;9.88;8.85;;;;;;;36.35;36.66;98627.52;2196352;81;20984;-80
2022/06/30 11:10:07;;;;;;;9.58;8.78;;;;;;;36.23;37.12;98631.91;2196257;80;21399;-80
2022/06/30 11:13:08;;;;;;;11.08;8.80;;;;;;;36.32;37.29;98624.25;2195941;81;20980;-81
2022/06/30 11:16:08;;;;;;;9.53;8.55;;;;;;;36.39;36.90;98622.64;2195858;81;20977;-81
2022/06/30 11:19:09;;;;;;;8.73;8.05;;;;;;;36.58;36.53;98622.58;2196457;81;20933;-81
2022/06/30 11:22:10;;;;;;;8.43;7.62;;;;;;;36.83;35.71;98612.01;2196608;80;20977;-81
2022/06/30 11:25:10;;;;;;;10.63;7.30;;;;;;;37.02;35.06;98613.73;2196991;81;21343;-81
2022/06/30 11:28:11;;;;;;;8.48;7.58;;;;;;;37.12;33.95;98606.35;2213951;80;21375;-80
2022/06/30 11:31:11;;;;;;;8.58;7.50;;;;;;;36.93;34.07;98604.63;2210793;80;20944;-82
2022/06/30 11:34:12;;;;;;;12.05;7.60;;;;;;;36.66;34.08;98606.36;2209852;81;20952;-82
2022/06/30 11:37:12;;;;;;;9.03;7.33;;;;;;;36.65;33.39;98596.48;2208747;81;20940;-81
2022/06/30 11:40:15;;;;;;;11.63;7.10;;;;;;;36.60;32.55;98593.38;2208913;81;20993;-81
2022/06/30 11:43:13;;;;;;;9.83;8.68;;;;;;;36.58;32.83;98587.73;2209321;81;20932;-82
2022/06/30 11:46:13;;;;;;;8.95;8.15;;;;;;;36.50;33.22;98575.41;2209699;81;21071;-81
2022/06/30 11:49:14;;;;;;;9.25;7.72;;;;;;;36.35;33.51;98582.68;2209952;81;20989;-82
2022/06/30 11:52:15;;;;;;;12.82;8.08;;;;;;;36.31;32.77;98585.84;2210188;81;20960;-80
2022/06/30 11:55:17;;;;;;;9.88;7.95;;;;;;;36.34;33.48;98589.12;2209859;81;20998;-80
2022/06/30 11:58:15;;;;;;;9.00;8.20;;;;;;;36.44;33.40;98584.17;2210110;81;20976;-82
2022/06/30 12:01:16;;;;;;;9.78;8.85;;;;;;;36.23;33.86;98577.56;2209760;81;20932;-81
2022/06/30 12:04:16;;;;;;;8.78;7.85;;;;;;;36.22;33.13;98579.92;2209379;81;20932;-81
2022/06/30 12:07:17;;;;;;;12.30;6.60;;;;;;;36.26;33.31;98578.11;2209495;81;20948;-81
2022/06/30 12:10:17;;;;;;;7.97;6.08;;;;;;;36.53;33.16;98563.72;2208508;81;21316;-81
2022/06/30 12:13:18;;;;;;;6.37;5.50;;;;;;;36.90;32.17;98562.78;2209159;81;20940;-81
2022/06/30 12:16:18;;;;;;;11.35;5.30;;;;;;;36.95;31.51;98553.66;2209529;81;20956;-80
2022/06/30 12:19:19;;;;;;;5.10;4.70;;;;;;;36.94;30.83;98550.58;2208710;81;20984;-81
2022/06/30 12:22:19;;;;;;;4.87;4.47;;;;;;;36.68;30.94;98552.67;2209279;81;20897;-80
2022/06/30 12:25:22;;;;;;;5.35;4.85;;;;;;;36.52;30.37;98547.06;2209333;81;20971;-80
2022/06/30 12:28:23;;;;;;;7.83;5.28;;;;;;;36.40;30.60;98544.17;2209888;80;21055;-80
2022/06/30 12:31:23;;;;;;;13.90;6.12;;;;;;;36.37;31.73;98548.55;2198608;80;20949;-80
2022/06/30 12:34:27;;;;;;;9.55;5.67;;;;;;;36.35;30.86;98543.27;2197810;81;20933;-81
2022/06/30 12:37:27;;;;;;;8.88;5.35;;;;;;;36.48;31.51;98538.86;2196621;81;20905;-79
2022/06/30 12:40:27;;;;;;;5.70;5.20;;;;;;;36.74;31.11;98544.41;2196677;81;20984;-80
2022/06/30 12:43:28;;;;;;;11.43;5.55;;;;;;;36.88;30.83;98539.82;2196705;80;21481;-80
2022/06/30 12:46:28;;;;;;;7.85;5.10;;;;;;;37.21;30.64;98539.60;2198481;81;20984;-82
2022/06/30 12:49:29;;;;;;;9.38;4.60;;;;;;;37.69;29.30;98550.59;2197060;81;20925;-82
2022/06/30 12:52:29;;;;;;;8.20;4.65;;;;;;;38.14;28.33;98559.02;2197593;81;21293;-84
2022/06/30 12:55:29;;;;;;;26.52;6.10;;;;;;;38.49;26.07;98568.42;2197689;80;20905;-84
2022/06/30 12:58:30;;;;;;;9.48;5.72;;;;;;;37.98;28.47;98565.74;2197440;81;20909;-82
2022/06/30 13:01:30;;;;;;;10.95;6.37;;;;;;;37.30;29.68;98556.92;2196815;80;21329;-82
2022/06/30 13:04:31;;;;;;;9.53;6.50;;;;;;;36.87;30.69;98552.22;2197031;80;21404;-81
2022/06/30 13:07:31;;;;;;;8.58;5.42;;;;;;;36.68;31.43;98554.03;2196714;81;20936;-83
2022/06/30 13:13:50;;;;;;;10.15;6.20;;;;;;;36.17;30.28;98543.69;2196638;81;20922;-82
2022/06/30 13:16:51;;;;;;;13.85;6.08;;;;;;;36.22;30.62;98547.31;2197156;80;21372;-81
2022/06/30 13:19:51;;;;;;;11.90;6.42;;;;;;;36.02;31.10;98538.41;2197111;81;20921;-81
2022/06/30 13:22:52;;;;;;;7.08;6.37;;;;;;;36.10;31.86;98543.09;2197901;80;20898;-81
2022/06/30 13:25:52;;;;;;;6.55;5.90;;;;;;;36.26;32.30;98541.93;2197523;81;21726;-83
2022/06/30 13:28:53;;;;;;;16.05;6.75;;;;;;;36.47;31.60;98549.38;2201472;80;20972;-83
2022/06/30 13:31:53;;;;;;;7.97;5.78;;;;;;;36.40;31.35;98542.81;2204951;81;20944;-81
2022/06/30 13:34:53;;;;;;;8.90;5.50;;;;;;;36.42;31.65;98547.63;2209445;81;21596;-80
2022/06/30 13:37:54;;;;;;;11.75;5.62;;;;;;;36.42;31.67;98542.19;2209903;81;20920;-82
2022/06/30 13:40:54;;;;;;;6.75;5.25;;;;;;;36.23;31.60;98547.67;2210580;81;21048;-82
2022/06/30 13:43:54;;;;;;;90.12;11.35;;;;;;;35.97;31.87;98547.00;2209936;81;21371;-77
2022/06/30 13:46:55;;;;;;;7.55;5.72;;;;;;;35.95;32.62;98544.09;2208710;81;20988;-81
2022/06/30 13:49:56;;;;;;;11.22;5.60;;;;;;;35.86;32.62;98544.48;2209572;81;20980;-81
2022/06/30 13:52:56;;;;;;;8.70;5.60;;;;;;;35.94;32.66;98541.88;2209997;81;20940;-80
2022/06/30 13:55:56;;;;;;;7.45;6.15;;;;;;;36.05;31.63;98537.60;2209077;81;21461;-82
2022/06/30 13:58:57;;;;;;;10.70;6.42;;;;;;;36.01;32.04;98534.84;2210469;81;20976;-81
2022/06/30 14:01:57;;;;;;;11.68;6.70;;;;;;;35.96;32.11;98531.71;2210435;81;20936;-82
2022/06/30 14:04:59;;;;;;;7.37;6.78;;;;;;;36.00;32.98;98531.77;2211089;81;20968;-80
2022/06/30 14:07:58;;;;;;;10.58;7.70;;;;;;;36.20;33.12;98535.24;2211287;81;21087;-81
2022/06/30 14:10:58;;;;;;;11.33;7.50;;;;;;;36.27;32.80;98539.57;2211174;80;20972;-83
2022/06/30 14:13:59;;;;;;;11.35;7.30;;;;;;;36.21;32.62;98533.38;2210096;81;20924;-83
2022/06/30 14:16:59;;;;;;;11.85;6.53;;;;;;;36.15;33.41;98547.56;2210378;81;21301;-82